sensor_id;sensor_type;location;lat;lon;timestamp;pressure;altitude;pressure_sealevel;temperature
50496;BMP280;38806;51.554;5.704;2022-08-21T00:00:38;101598.94;;;11.07
50496;BMP280;38806;51.554;5.704;2022-08-21T00:02:46;101603.28;;;11.05
50496;BMP280;38806;51.554;5.704;2022-08-21T00:04:47;101576.75;;;11.12
50496;BMP280;38806;51.554;5.704;2022-08-21T00:06:50;101591.59;;;11.08
50496;BMP280;38806;51.554;5.704;2022-08-21T00:08:51;101563.31;;;11.12
50496;BMP280;38806;51.554;5.704;2022-08-21T00:10:51;101554.75;;;11.14
50496;BMP280;38806;51.554;5.704;2022-08-21T00:12:52;101536.19;;;11.16
50496;BMP280;38806;51.554;5.704;2022-08-21T00:14:52;101534.41;;;11.13
50496;BMP280;38806;51.554;5.704;2022-08-21T00:16:53;101551.56;;;11.00
50496;BMP280;38806;51.554;5.704;2022-08-21T00:18:53;101536.25;;;11.07
50496;BMP280;38806;51.554;5.704;2022-08-21T00:20:54;101530.13;;;11.06
50496;BMP280;38806;51.554;5.704;2022-08-21T00:22:54;101537.63;;;11.02
50496;BMP280;38806;51.554;5.704;2022-08-21T00:24:54;101522.53;;;11.05
50496;BMP280;38806;51.554;5.704;2022-08-21T00:26:54;101522.22;;;11.02
50496;BMP280;38806;51.554;5.704;2022-08-21T00:28:55;101508.00;;;11.02
50496;BMP280;38806;51.554;5.704;2022-08-21T00:30:55;101487.34;;;11.08
50496;BMP280;38806;51.554;5.704;2022-08-21T00:32:57;101496.97;;;11.00
50496;BMP280;38806;51.554;5.704;2022-08-21T00:34:58;101521.44;;;10.87
50496;BMP280;38806;51.554;5.704;2022-08-21T00:36:58;101550.09;;;10.76
50496;BMP280;38806;51.554;5.704;2022-08-21T00:38:58;101550.72;;;10.71
50496;BMP280;38806;51.554;5.704;2022-08-21T00:41:01;101575.28;;;10.63
50496;BMP280;38806;51.554;5.704;2022-08-21T00:43:03;101572.59;;;10.63
50496;BMP280;38806;51.554;5.704;2022-08-21T00:45:05;101567.50;;;10.65
50496;BMP280;38806;51.554;5.704;2022-08-21T00:47:05;101575.72;;;10.62
50496;BMP280;38806;51.554;5.704;2022-08-21T00:49:07;101550.88;;;10.67
50496;BMP280;38806;51.554;5.704;2022-08-21T00:51:14;101545.34;;;10.71
50496;BMP280;38806;51.554;5.704;2022-08-21T00:53:15;101536.06;;;10.72
50496;BMP280;38806;51.554;5.704;2022-08-21T00:55:16;101551.34;;;10.65
50496;BMP280;38806;51.554;5.704;2022-08-21T00:57:22;101576.66;;;10.59
50496;BMP280;38806;51.554;5.704;2022-08-21T00:59:25;101566.47;;;10.63
50496;BMP280;38806;51.554;5.704;2022-08-21T01:01:25;101566.94;;;10.61
50496;BMP280;38806;51.554;5.704;2022-08-21T01:03:26;101583.38;;;10.54
50496;BMP280;38806;51.554;5.704;2022-08-21T01:05:26;101593.16;;;10.52
50496;BMP280;38806;51.554;5.704;2022-08-21T01:07:26;101581.44;;;10.55
50496;BMP280;38806;51.554;5.704;2022-08-21T01:09:27;101572.78;;;10.60
50496;BMP280;38806;51.554;5.704;2022-08-21T01:11:27;101583.69;;;10.56
50496;BMP280;38806;51.554;5.704;2022-08-21T01:13:29;101577.41;;;10.59
50496;BMP280;38806;51.554;5.704;2022-08-21T01:15:35;101597.31;;;10.53
50496;BMP280;38806;51.554;5.704;2022-08-21T01:17:36;101580.53;;;10.58
50496;BMP280;38806;51.554;5.704;2022-08-21T01:19:36;101605.25;;;10.47
50496;BMP280;38806;51.554;5.704;2022-08-21T01:21:37;101579.25;;;10.53
50496;BMP280;38806;51.554;5.704;2022-08-21T01:23:40;101565.91;;;10.59
50496;BMP280;38806;51.554;5.704;2022-08-21T01:25:40;101580.91;;;10.51
50496;BMP280;38806;51.554;5.704;2022-08-21T01:27:41;101575.94;;;10.49
50496;BMP280;38806;51.554;5.704;2022-08-21T01:29:45;101555.75;;;10.54
50496;BMP280;38806;51.554;5.704;2022-08-21T01:31:47;101556.97;;;10.53
50496;BMP280;38806;51.554;5.704;2022-08-21T01:33:47;101568.53;;;10.44
50496;BMP280;38806;51.554;5.704;2022-08-21T01:35:47;101579.13;;;10.39
50496;BMP280;38806;51.554;5.704;2022-08-21T01:37:48;101567.16;;;10.40
50496;BMP280;38806;51.554;5.704;2022-08-21T01:39:48;101579.13;;;10.39
50496;BMP280;38806;51.554;5.704;2022-08-21T01:41:49;101548.94;;;10.44
50496;BMP280;38806;51.554;5.704;2022-08-21T01:43:49;101559.72;;;10.44
50496;BMP280;38806;51.554;5.704;2022-08-21T01:45:49;101577.09;;;10.33
50496;BMP280;38806;51.554;5.704;2022-08-21T01:47:50;101585.28;;;10.30
50496;BMP280;38806;51.554;5.704;2022-08-21T01:49:50;101585.28;;;10.30
50496;BMP280;38806;51.554;5.704;2022-08-21T01:51:51;101595.31;;;10.29
50496;BMP280;38806;51.554;5.704;2022-08-21T01:53:51;101570.97;;;10.33
50496;BMP280;38806;51.554;5.704;2022-08-21T01:55:52;101604.63;;;10.19
50496;BMP280;38806;51.554;5.704;2022-08-21T01:57:53;101594.63;;;10.20
50496;BMP280;38806;51.554;5.704;2022-08-21T01:59:54;101601.19;;;10.19
50496;BMP280;38806;51.554;5.704;2022-08-21T02:01:54;101608.22;;;10.16
50496;BMP280;38806;51.554;5.704;2022-08-21T02:03:55;101595.97;;;10.15
50496;BMP280;38806;51.554;5.704;2022-08-21T02:05:55;101611.50;;;10.11
50496;BMP280;38806;51.554;5.704;2022-08-21T02:07:57;101607.03;;;10.08
50496;BMP280;38806;51.554;5.704;2022-08-21T02:09:57;101625.72;;;10.02
50496;BMP280;38806;51.554;5.704;2022-08-21T02:11:57;101614.03;;;10.06
50496;BMP280;38806;51.554;5.704;2022-08-21T02:13:58;101630.94;;;9.97
50496;BMP280;38806;51.554;5.704;2022-08-21T02:15:58;101625.44;;;10.00
50496;BMP280;38806;51.554;5.704;2022-08-21T02:18:00;101621.25;;;9.99
50496;BMP280;38806;51.554;5.704;2022-08-21T02:20:02;101610.94;;;10.07
50496;BMP280;38806;51.554;5.704;2022-08-21T02:22:03;101609.44;;;10.06
50496;BMP280;38806;51.554;5.704;2022-08-21T02:24:04;101613.47;;;10.01
50496;BMP280;38806;51.554;5.704;2022-08-21T02:26:06;101601.06;;;10.04
50496;BMP280;38806;51.554;5.704;2022-08-21T02:28:12;101620.50;;;9.99
50496;BMP280;38806;51.554;5.704;2022-08-21T02:30:15;101613.63;;;9.98
50496;BMP280;38806;51.554;5.704;2022-08-21T02:32:15;101632.47;;;9.89
50496;BMP280;38806;51.554;5.704;2022-08-21T02:34:16;101646.50;;;9.84
50496;BMP280;38806;51.554;5.704;2022-08-21T02:36:16;101655.88;;;9.79
50496;BMP280;38806;51.554;5.704;2022-08-21T02:38:22;101659.34;;;9.80
50496;BMP280;38806;51.554;5.704;2022-08-21T02:40:26;101612.31;;;9.93
50496;BMP280;38806;51.554;5.704;2022-08-21T02:42:26;101583.91;;;10.01
50496;BMP280;38806;51.554;5.704;2022-08-21T02:44:27;101596.75;;;9.97
50496;BMP280;38806;51.554;5.704;2022-08-21T02:46:27;101551.34;;;10.09
50496;BMP280;38806;51.554;5.704;2022-08-21T02:48:30;101607.81;;;9.90
50496;BMP280;38806;51.554;5.704;2022-08-21T02:50:43;101597.63;;;9.94
50496;BMP280;38806;51.554;5.704;2022-08-21T02:52:44;101608.28;;;9.89
50496;BMP280;38806;51.554;5.704;2022-08-21T02:54:45;101586.75;;;9.98
50496;BMP280;38806;51.554;5.704;2022-08-21T02:56:45;101611.72;;;9.89
50496;BMP280;38806;51.554;5.704;2022-08-21T02:58:49;101607.53;;;9.88
50496;BMP280;38806;51.554;5.704;2022-08-21T03:00:50;101604.69;;;9.92
50496;BMP280;38806;51.554;5.704;2022-08-21T03:02:51;101617.41;;;9.82
50496;BMP280;38806;51.554;5.704;2022-08-21T03:04:51;101615.47;;;9.83
50496;BMP280;38806;51.554;5.704;2022-08-21T03:06:51;101619.19;;;9.76
50496;BMP280;38806;51.554;5.704;2022-08-21T03:08:52;101658.75;;;9.66
50496;BMP280;38806;51.554;5.704;2022-08-21T03:10:52;101625.03;;;9.75
50496;BMP280;38806;51.554;5.704;2022-08-21T03:12:53;101634.72;;;9.72
50496;BMP280;38806;51.554;5.704;2022-08-21T03:14:54;101630.53;;;9.71
50496;BMP280;38806;51.554;5.704;2022-08-21T03:16:54;101552.69;;;9.95
50496;BMP280;38806;51.554;5.704;2022-08-21T03:18:55;101564.19;;;9.95
50496;BMP280;38806;51.554;5.704;2022-08-21T03:20:55;101526.84;;;10.07
50496;BMP280;38806;51.554;5.704;2022-08-21T03:22:56;101514.25;;;10.13
50496;BMP280;38806;51.554;5.704;2022-08-21T03:24:56;101501.41;;;10.17
50496;BMP280;38806;51.554;5.704;2022-08-21T03:26:57;101416.22;;;10.47
50496;BMP280;38806;51.554;5.704;2022-08-21T03:28:57;101442.72;;;10.39
50496;BMP280;38806;51.554;5.704;2022-08-21T03:30:58;101466.50;;;10.31
50496;BMP280;38806;51.554;5.704;2022-08-21T03:32:59;101504.22;;;10.22
50496;BMP280;38806;51.554;5.704;2022-08-21T03:34:59;101476.97;;;10.29
50496;BMP280;38806;51.554;5.704;2022-08-21T03:37:00;101465.63;;;10.34
50496;BMP280;38806;51.554;5.704;2022-08-21T03:39:00;101425.50;;;10.46
50496;BMP280;38806;51.554;5.704;2022-08-21T03:41:01;101479.97;;;10.31
50496;BMP280;38806;51.554;5.704;2022-08-21T03:43:01;101464.13;;;10.33
50496;BMP280;38806;51.554;5.704;2022-08-21T03:45:02;101444.19;;;10.40
50496;BMP280;38806;51.554;5.704;2022-08-21T03:47:03;101497.63;;;10.23
50496;BMP280;38806;51.554;5.704;2022-08-21T03:49:04;101510.22;;;10.17
50496;BMP280;38806;51.554;5.704;2022-08-21T03:51:05;101546.56;;;10.03
50496;BMP280;38806;51.554;5.704;2022-08-21T03:53:06;101566.44;;;9.97
50496;BMP280;38806;51.554;5.704;2022-08-21T03:55:07;101574.38;;;9.91
50496;BMP280;38806;51.554;5.704;2022-08-21T03:57:07;101592.31;;;9.85
50496;BMP280;38806;51.554;5.704;2022-08-21T03:59:09;101595.00;;;9.85
50496;BMP280;38806;51.554;5.704;2022-08-21T04:01:09;101604.84;;;9.79
50496;BMP280;38806;51.554;5.704;2022-08-21T04:03:09;101583.50;;;9.85
50496;BMP280;38806;51.554;5.704;2022-08-21T04:05:13;101543.31;;;9.99
50496;BMP280;38806;51.554;5.704;2022-08-21T04:07:13;101557.63;;;9.96
50496;BMP280;38806;51.554;5.704;2022-08-21T04:09:14;101566.78;;;9.90
50496;BMP280;38806;51.554;5.704;2022-08-21T04:11:14;101586.34;;;9.81
50496;BMP280;38806;51.554;5.704;2022-08-21T04:13:14;101563.75;;;9.88
50496;BMP280;38806;51.554;5.704;2022-08-21T04:15:15;101524.50;;;9.99
50496;BMP280;38806;51.554;5.704;2022-08-21T04:17:15;101536.88;;;9.97
50496;BMP280;38806;51.554;5.704;2022-08-21T04:19:15;101540.31;;;9.97
50496;BMP280;38806;51.554;5.704;2022-08-21T04:21:16;101553.91;;;9.94
50496;BMP280;38806;51.554;5.704;2022-08-21T04:23:20;101535.38;;;9.96
50496;BMP280;38806;51.554;5.704;2022-08-21T04:25:22;101573.22;;;9.83
50496;BMP280;38806;51.554;5.704;2022-08-21T04:27:22;101589.63;;;9.76
50496;BMP280;38806;51.554;5.704;2022-08-21T04:29:23;101597.09;;;9.72
50496;BMP280;38806;51.554;5.704;2022-08-21T04:31:24;101625.19;;;9.62
50496;BMP280;38806;51.554;5.704;2022-08-21T04:33:25;101624.09;;;9.59
50496;BMP280;38806;51.554;5.704;2022-08-21T04:35:27;101635.78;;;9.56
50496;BMP280;38806;51.554;5.704;2022-08-21T04:37:27;101639.78;;;9.52
50496;BMP280;38806;51.554;5.704;2022-08-21T04:39:28;101651.44;;;9.49
50496;BMP280;38806;51.554;5.704;2022-08-21T04:41:28;101637.81;;;9.52
50496;BMP280;38806;51.554;5.704;2022-08-21T04:43:29;101659.94;;;9.47
50496;BMP280;38806;51.554;5.704;2022-08-21T04:45:35;101633.09;;;9.56
50496;BMP280;38806;51.554;5.704;2022-08-21T04:47:36;101645.47;;;9.54
50496;BMP280;38806;51.554;5.704;2022-08-21T04:49:36;101619.03;;;9.61
50496;BMP280;38806;51.554;5.704;2022-08-21T04:51:37;101609.34;;;9.64
50496;BMP280;38806;51.554;5.704;2022-08-21T04:53:42;101631.88;;;9.57
50496;BMP280;38806;51.554;5.704;2022-08-21T04:55:44;101661.56;;;9.45
50496;BMP280;38806;51.554;5.704;2022-08-21T04:57:45;101637.09;;;9.52
50496;BMP280;38806;51.554;5.704;2022-08-21T04:59:48;101600.53;;;9.63
50496;BMP280;38806;51.554;5.704;2022-08-21T05:01:51;101597.72;;;9.67
50496;BMP280;38806;51.554;5.704;2022-08-21T05:03:54;101530.63;;;9.91
50496;BMP280;38806;51.554;5.704;2022-08-21T05:05:55;101536.31;;;9.93
50496;BMP280;38806;51.554;5.704;2022-08-21T05:07:58;101478.56;;;10.12
50496;BMP280;38806;51.554;5.704;2022-08-21T05:10:00;101464.81;;;10.19
50496;BMP280;38806;51.554;5.704;2022-08-21T05:12:01;101462.59;;;10.18
50496;BMP280;38806;51.554;5.704;2022-08-21T05:14:02;101415.75;;;10.33
50496;BMP280;38806;51.554;5.704;2022-08-21T05:16:03;101407.97;;;10.35
50496;BMP280;38806;51.554;5.704;2022-08-21T05:18:03;101405.53;;;10.38
50496;BMP280;38806;51.554;5.704;2022-08-21T05:20:04;101402.22;;;10.43
50496;BMP280;38806;51.554;5.704;2022-08-21T05:22:05;101348.75;;;10.59
50496;BMP280;38806;51.554;5.704;2022-08-21T05:24:06;101379.16;;;10.51
50496;BMP280;38806;51.554;5.704;2022-08-21T05:26:06;101325.94;;;10.70
50496;BMP280;38806;51.554;5.704;2022-08-21T05:28:06;101342.53;;;10.68
50496;BMP280;38806;51.554;5.704;2022-08-21T05:30:08;101308.94;;;10.78
50496;BMP280;38806;51.554;5.704;2022-08-21T05:32:13;101316.28;;;10.78
50496;BMP280;38806;51.554;5.704;2022-08-21T05:34:17;101291.03;;;10.90
50496;BMP280;38806;51.554;5.704;2022-08-21T05:36:18;101312.19;;;10.82
50496;BMP280;38806;51.554;5.704;2022-08-21T05:38:19;101263.03;;;11.02
50496;BMP280;38806;51.554;5.704;2022-08-21T05:40:19;101239.91;;;11.10
50496;BMP280;38806;51.554;5.704;2022-08-21T05:42:19;101167.59;;;11.38
50496;BMP280;38806;51.554;5.704;2022-08-21T05:44:20;101226.31;;;11.19
50496;BMP280;38806;51.554;5.704;2022-08-21T05:46:20;101266.81;;;11.10
50496;BMP280;38806;51.554;5.704;2022-08-21T05:48:22;101156.69;;;11.47
50496;BMP280;38806;51.554;5.704;2022-08-21T05:50:23;101149.38;;;11.53
50496;BMP280;38806;51.554;5.704;2022-08-21T05:52:24;101115.47;;;11.67
50496;BMP280;38806;51.554;5.704;2022-08-21T05:54:24;101018.94;;;12.02
50496;BMP280;38806;51.554;5.704;2022-08-21T05:56:24;101096.47;;;11.82
50496;BMP280;38806;51.554;5.704;2022-08-21T05:58:25;101147.53;;;11.65
50496;BMP280;38806;51.554;5.704;2022-08-21T06:00:25;101036.88;;;12.06
50496;BMP280;38806;51.554;5.704;2022-08-21T06:02:25;101003.84;;;12.22
50496;BMP280;38806;51.554;5.704;2022-08-21T06:04:26;100938.47;;;12.49
50496;BMP280;38806;51.554;5.704;2022-08-21T06:06:26;100945.59;;;12.52
50496;BMP280;38806;51.554;5.704;2022-08-21T06:08:27;100925.75;;;12.61
50496;BMP280;38806;51.554;5.704;2022-08-21T06:10:27;100982.13;;;12.42
50496;BMP280;38806;51.554;5.704;2022-08-21T06:12:28;100941.22;;;12.55
50496;BMP280;38806;51.554;5.704;2022-08-21T06:14:28;100918.19;;;12.71
50496;BMP280;38806;51.554;5.704;2022-08-21T06:16:29;100922.59;;;12.74
50496;BMP280;38806;51.554;5.704;2022-08-21T06:18:29;100809.72;;;13.17
50496;BMP280;38806;51.554;5.704;2022-08-21T06:20:30;100831.06;;;13.15
50496;BMP280;38806;51.554;5.704;2022-08-21T06:22:30;100816.53;;;13.23
50496;BMP280;38806;51.554;5.704;2022-08-21T06:24:30;100798.84;;;13.33
50496;BMP280;38806;51.554;5.704;2022-08-21T06:26:31;100802.78;;;13.32
50496;BMP280;38806;51.554;5.704;2022-08-21T06:28:33;100768.06;;;13.53
50496;BMP280;38806;51.554;5.704;2022-08-21T06:30:34;100835.91;;;13.38
50496;BMP280;38806;51.554;5.704;2022-08-21T06:32:36;100810.81;;;13.49
50496;BMP280;38806;51.554;5.704;2022-08-21T06:34:37;100799.25;;;13.60
50496;BMP280;38806;51.554;5.704;2022-08-21T06:36:38;100769.41;;;13.77
50496;BMP280;38806;51.554;5.704;2022-08-21T06:38:39;100738.59;;;13.91
50496;BMP280;38806;51.554;5.704;2022-08-21T06:40:39;100754.31;;;13.92
50496;BMP280;38806;51.554;5.704;2022-08-21T06:42:39;100746.38;;;14.00
50496;BMP280;38806;51.554;5.704;2022-08-21T06:44:40;100785.03;;;13.95
50496;BMP280;38806;51.554;5.704;2022-08-21T06:46:40;100711.75;;;14.28
50496;BMP280;38806;51.554;5.704;2022-08-21T06:48:40;100725.00;;;14.32
50496;BMP280;38806;51.554;5.704;2022-08-21T06:50:40;100736.78;;;14.34
50496;BMP280;38806;51.554;5.704;2022-08-21T06:52:41;100782.84;;;14.29
50496;BMP280;38806;51.554;5.704;2022-08-21T06:54:41;100737.38;;;14.52
50496;BMP280;38806;51.554;5.704;2022-08-21T06:56:41;100746.63;;;14.62
50496;BMP280;38806;51.554;5.704;2022-08-21T06:58:41;100758.09;;;14.73
50496;BMP280;38806;51.554;5.704;2022-08-21T07:00:44;100809.06;;;14.69
50496;BMP280;38806;51.554;5.704;2022-08-21T07:02:45;100793.38;;;14.87
50496;BMP280;38806;51.554;5.704;2022-08-21T07:04:45;100799.69;;;15.00
50496;BMP280;38806;51.554;5.704;2022-08-21T07:06:45;100813.81;;;15.12
50496;BMP280;38806;51.554;5.704;2022-08-21T07:08:45;100829.94;;;15.23
50496;BMP280;38806;51.554;5.704;2022-08-21T07:10:47;100891.53;;;15.23
50496;BMP280;38806;51.554;5.704;2022-08-21T07:12:47;100923.28;;;15.28
50496;BMP280;38806;51.554;5.704;2022-08-21T07:14:48;100923.84;;;15.45
50496;BMP280;38806;51.554;5.704;2022-08-21T07:16:49;100990.22;;;15.33
50496;BMP280;38806;51.554;5.704;2022-08-21T07:18:50;100963.25;;;15.46
50496;BMP280;38806;51.554;5.704;2022-08-21T07:20:50;100984.88;;;15.52
50496;BMP280;38806;51.554;5.704;2022-08-21T07:22:51;100933.50;;;15.84
50496;BMP280;38806;51.554;5.704;2022-08-21T07:24:51;100931.59;;;15.97
50496;BMP280;38806;51.554;5.704;2022-08-21T07:26:51;100954.63;;;16.09
50496;BMP280;38806;51.554;5.704;2022-08-21T07:28:53;100982.84;;;16.20
50496;BMP280;38806;51.554;5.704;2022-08-21T07:30:55;100955.94;;;16.40
50496;BMP280;38806;51.554;5.704;2022-08-21T07:32:56;100993.28;;;16.53
50496;BMP280;38806;51.554;5.704;2022-08-21T07:34:57;101009.84;;;16.68
50496;BMP280;38806;51.554;5.704;2022-08-21T07:36:57;101016.69;;;16.88
50496;BMP280;38806;51.554;5.704;2022-08-21T07:38:58;100997.19;;;17.03
50496;BMP280;38806;51.554;5.704;2022-08-21T07:41:00;101040.41;;;17.19
50496;BMP280;38806;51.554;5.704;2022-08-21T07:43:01;101047.00;;;17.24
50496;BMP280;38806;51.554;5.704;2022-08-21T07:45:01;101101.81;;;17.41
50496;BMP280;38806;51.554;5.704;2022-08-21T07:47:02;101153.63;;;17.62
50496;BMP280;38806;51.554;5.704;2022-08-21T07:49:02;101207.19;;;17.54
50496;BMP280;38806;51.554;5.704;2022-08-21T07:51:07;101227.50;;;17.34
50496;BMP280;38806;51.554;5.704;2022-08-21T07:53:09;101216.22;;;17.30
50496;BMP280;38806;51.554;5.704;2022-08-21T07:55:12;101201.97;;;17.24
50496;BMP280;38806;51.554;5.704;2022-08-21T07:57:12;101178.72;;;17.23
50496;BMP280;38806;51.554;5.704;2022-08-21T07:59:13;101163.38;;;17.25
50496;BMP280;38806;51.554;5.704;2022-08-21T08:01:13;101076.31;;;17.44
50496;BMP280;38806;51.554;5.704;2022-08-21T08:03:14;101118.78;;;17.47
50496;BMP280;38806;51.554;5.704;2022-08-21T08:05:14;101079.25;;;17.59
50496;BMP280;38806;51.554;5.704;2022-08-21T08:07:16;101118.59;;;17.58
50496;BMP280;38806;51.554;5.704;2022-08-21T08:09:16;101139.63;;;17.71
50496;BMP280;38806;51.554;5.704;2022-08-21T08:11:16;101177.97;;;17.73
50496;BMP280;38806;51.554;5.704;2022-08-21T08:13:17;101169.69;;;17.79
50496;BMP280;38806;51.554;5.704;2022-08-21T08:15:21;101192.63;;;17.96
50496;BMP280;38806;51.554;5.704;2022-08-21T08:17:21;101219.84;;;17.96
50496;BMP280;38806;51.554;5.704;2022-08-21T08:19:23;101133.56;;;18.31
50496;BMP280;38806;51.554;5.704;2022-08-21T08:21:23;101229.53;;;18.37
50496;BMP280;38806;51.554;5.704;2022-08-21T08:23:23;101238.31;;;18.69
50496;BMP280;38806;51.554;5.704;2022-08-21T08:25:26;101308.41;;;18.82
50496;BMP280;38806;51.554;5.704;2022-08-21T08:27:27;101446.34;;;18.85
50496;BMP280;38806;51.554;5.704;2022-08-21T08:29:28;101387.66;;;18.84
50496;BMP280;38806;51.554;5.704;2022-08-21T08:31:28;101433.16;;;19.02
50496;BMP280;38806;51.554;5.704;2022-08-21T08:33:28;101469.06;;;19.06
50496;BMP280;38806;51.554;5.704;2022-08-21T08:35:28;101311.84;;;19.43
50496;BMP280;38806;51.554;5.704;2022-08-21T08:37:29;101464.84;;;19.92
50496;BMP280;38806;51.554;5.704;2022-08-21T08:39:30;101646.34;;;20.38
50496;BMP280;38806;51.554;5.704;2022-08-21T08:41:30;101588.38;;;21.15
50496;BMP280;38806;51.554;5.704;2022-08-21T08:43:32;101536.88;;;21.93
50496;BMP280;38806;51.554;5.704;2022-08-21T08:45:36;101888.47;;;21.75
50496;BMP280;38806;51.554;5.704;2022-08-21T08:47:47;101766.09;;;22.27
50496;BMP280;38806;51.554;5.704;2022-08-21T08:52:07;101954.78;;;22.72
50496;BMP280;38806;51.554;5.704;2022-08-21T08:54:21;101983.19;;;21.70
50496;BMP280;38806;51.554;5.704;2022-08-21T08:56:30;101952.19;;;21.55
50496;BMP280;38806;51.554;5.704;2022-08-21T08:58:36;101849.69;;;21.63
50496;BMP280;38806;51.554;5.704;2022-08-21T09:00:38;101932.41;;;21.49
50496;BMP280;38806;51.554;5.704;2022-08-21T09:02:40;101990.59;;;21.96
50496;BMP280;38806;51.554;5.704;2022-08-21T09:04:41;101981.22;;;22.33
50496;BMP280;38806;51.554;5.704;2022-08-21T09:09:29;102164.03;;;21.25
50496;BMP280;38806;51.554;5.704;2022-08-21T09:11:56;102204.06;;;21.28
50496;BMP280;38806;51.554;5.704;2022-08-21T09:16:45;102101.25;;;21.01
50496;BMP280;38806;51.554;5.704;2022-08-21T09:23:25;102173.63;;;21.98
50496;BMP280;38806;51.554;5.704;2022-08-21T09:25:36;102136.94;;;22.97
50496;BMP280;38806;51.554;5.704;2022-08-21T09:27:39;102253.03;;;22.84
50496;BMP280;38806;51.554;5.704;2022-08-21T09:29:44;102081.50;;;23.27
50496;BMP280;38806;51.554;5.704;2022-08-21T09:31:44;102388.00;;;23.17
50496;BMP280;38806;51.554;5.704;2022-08-21T09:33:45;102233.81;;;23.90
50496;BMP280;38806;51.554;5.704;2022-08-21T09:35:54;102237.13;;;24.47
50496;BMP280;38806;51.554;5.704;2022-08-21T09:39:58;102300.41;;;25.76
50496;BMP280;38806;51.554;5.704;2022-08-21T09:42:02;102509.28;;;24.74
50496;BMP280;38806;51.554;5.704;2022-08-21T09:44:04;102366.19;;;24.89
50496;BMP280;38806;51.554;5.704;2022-08-21T09:46:20;102389.50;;;24.88
50496;BMP280;38806;51.554;5.704;2022-08-21T09:48:23;102301.59;;;25.28
50496;BMP280;38806;51.554;5.704;2022-08-21T09:50:26;102416.19;;;25.23
50496;BMP280;38806;51.554;5.704;2022-08-21T09:52:27;102363.50;;;25.34
50496;BMP280;38806;51.554;5.704;2022-08-21T09:54:33;102275.41;;;25.90
50496;BMP280;38806;51.554;5.704;2022-08-21T09:56:50;102267.31;;;25.92
50496;BMP280;38806;51.554;5.704;2022-08-21T09:59:20;102250.19;;;26.58
50496;BMP280;38806;51.554;5.704;2022-08-21T10:01:25;102418.75;;;25.36
50496;BMP280;38806;51.554;5.704;2022-08-21T10:03:26;102551.66;;;24.21
50496;BMP280;38806;51.554;5.704;2022-08-21T10:05:26;102466.94;;;24.20
50496;BMP280;38806;51.554;5.704;2022-08-21T10:07:31;102397.91;;;24.31
50496;BMP280;38806;51.554;5.704;2022-08-21T10:09:31;102437.28;;;23.77
50496;BMP280;38806;51.554;5.704;2022-08-21T10:11:33;102159.72;;;25.12
50496;BMP280;38806;51.554;5.704;2022-08-21T10:13:43;102167.94;;;26.07
50496;BMP280;38806;51.554;5.704;2022-08-21T10:16:00;102195.19;;;26.35
50496;BMP280;38806;51.554;5.704;2022-08-21T10:22:32;102178.06;;;28.11
50496;BMP280;38806;51.554;5.704;2022-08-21T10:24:44;102224.94;;;28.09
50496;BMP280;38806;51.554;5.704;2022-08-21T10:29:19;102217.06;;;28.41
50496;BMP280;38806;51.554;5.704;2022-08-21T10:36:13;102394.28;;;27.73
50496;BMP280;38806;51.554;5.704;2022-08-21T10:38:40;102111.75;;;28.87
50496;BMP280;38806;51.554;5.704;2022-08-21T10:41:06;102202.28;;;28.94
50496;BMP280;38806;51.554;5.704;2022-08-21T10:48:35;102285.50;;;28.04
50496;BMP280;38806;51.554;5.704;2022-08-21T10:51:03;102426.72;;;25.55
50496;BMP280;38806;51.554;5.704;2022-08-21T10:55:35;102252.22;;;25.30
50496;BMP280;38806;51.554;5.704;2022-08-21T10:57:58;102229.41;;;26.32
50496;BMP280;38806;51.554;5.704;2022-08-21T11:00:14;102320.38;;;26.40
50496;BMP280;38806;51.554;5.704;2022-08-21T11:02:35;102403.31;;;26.02
50496;BMP280;38806;51.554;5.704;2022-08-21T11:04:37;102265.34;;;27.16
50496;BMP280;38806;51.554;5.704;2022-08-21T11:06:46;102140.34;;;28.06
50496;BMP280;38806;51.554;5.704;2022-08-21T11:08:51;102092.50;;;28.32
50496;BMP280;38806;51.554;5.704;2022-08-21T11:13:05;102238.41;;;27.95
50496;BMP280;38806;51.554;5.704;2022-08-21T11:17:31;102054.88;;;28.96
50496;BMP280;38806;51.554;5.704;2022-08-21T11:21:48;102135.81;;;28.00
50496;BMP280;38806;51.554;5.704;2022-08-21T11:26:30;102289.31;;;27.13
50496;BMP280;38806;51.554;5.704;2022-08-21T11:28:35;102385.47;;;26.83
50496;BMP280;38806;51.554;5.704;2022-08-21T11:30:56;102409.94;;;25.99
50496;BMP280;38806;51.554;5.704;2022-08-21T11:33:19;102289.56;;;26.26
50496;BMP280;38806;51.554;5.704;2022-08-21T11:38:32;102328.91;;;25.79
50496;BMP280;38806;51.554;5.704;2022-08-21T11:41:02;102270.69;;;25.75
50496;BMP280;38806;51.554;5.704;2022-08-21T11:43:09;102174.97;;;26.92
50496;BMP280;38806;51.554;5.704;2022-08-21T11:48:04;101894.06;;;29.67
50496;BMP280;38806;51.554;5.704;2022-08-21T11:50:16;102338.50;;;27.67
50496;BMP280;38806;51.554;5.704;2022-08-21T11:52:26;102202.78;;;28.35
50496;BMP280;38806;51.554;5.704;2022-08-21T11:54:38;102072.22;;;28.97
50496;BMP280;38806;51.554;5.704;2022-08-21T11:56:45;102225.16;;;27.67
50496;BMP280;38806;51.554;5.704;2022-08-21T11:58:51;102265.13;;;27.39
50496;BMP280;38806;51.554;5.704;2022-08-21T12:00:58;102235.31;;;27.64
50496;BMP280;38806;51.554;5.704;2022-08-21T12:03:11;102256.09;;;27.82
50496;BMP280;38806;51.554;5.704;2022-08-21T12:05:44;102237.44;;;27.56
50496;BMP280;38806;51.554;5.704;2022-08-21T12:07:44;102171.47;;;28.42
50496;BMP280;38806;51.554;5.704;2022-08-21T12:09:56;102116.59;;;29.37
50496;BMP280;38806;51.554;5.704;2022-08-21T12:16:15;102047.56;;;30.36
50496;BMP280;38806;51.554;5.704;2022-08-21T12:18:22;102061.81;;;30.86
50496;BMP280;38806;51.554;5.704;2022-08-21T12:22:39;101842.78;;;32.07
50496;BMP280;38806;51.554;5.704;2022-08-21T12:24:48;101937.13;;;31.89
50496;BMP280;38806;51.554;5.704;2022-08-21T12:26:55;102313.84;;;29.72
50496;BMP280;38806;51.554;5.704;2022-08-21T12:29:11;102523.13;;;28.18
50496;BMP280;38806;51.554;5.704;2022-08-21T12:31:21;102345.88;;;28.42
50496;BMP280;38806;51.554;5.704;2022-08-21T12:33:26;102353.84;;;28.12
50496;BMP280;38806;51.554;5.704;2022-08-21T12:35:38;102403.69;;;27.35